Register | Login
Attackpoint AR - performance and training tools for adventure athletes

Common Leg: 157 – 103

OCIN Flying Pig XXIV - 2022 Junior Nationals (Apr 2) - this leg is used on the following courses:

Combined splits

#
1. cmpblla 57 OCIN_FP2022_Saturday_Classic_2022-04-02_9_GreenC
2. rastridge 58 +1 2% OCIN_FP2022_Saturday_Classic_2022-04-02_9_GreenC
3. Audrey Javadoff 1:00 +3 5% OCIN_FP2022_Saturday_Classic_2022-04-02_9_GreenC
3. Gabriel DeGracia 1:00 +3 5% OCIN_FP2022_Saturday_Classic_2022-04-02_9_GreenC
5. birksr 1:02 +5 9% OCIN_FP2022_Saturday_Classic_2022-04-02_8_GreenB
6. Brucewithamap 1:06 +9 16% OCIN_FP2022_Saturday_Classic_2022-04-02_8_GreenB
7. lily. 1:07 +10 18% OCIN_FP2022_Saturday_Classic_2022-04-02_9_GreenC
7. cmorse 1:07 +10 18% OCIN_FP2022_Saturday_Classic_2022-04-02_8_GreenB
9. MaxA 1:08 +11 19% OCIN_FP2022_Saturday_Classic_2022-04-02_9_GreenC
10. Jack Barkley 1:10 +13 23% OCIN_FP2022_Saturday_Classic_2022-04-02_9_GreenC
10. Luke Menzie 1:10 +13 23% OCIN_FP2022_Saturday_Classic_2022-04-02_9_GreenC
12. Benjamin Hart 1:11 +14 25% OCIN_FP2022_Saturday_Classic_2022-04-02_8_GreenB
13. Corrigan Railey 1:13 +16 28% OCIN_FP2022_Saturday_Classic_2022-04-02_9_GreenC
14. Kevin Mihata 1:16 +19 33% OCIN_FP2022_Saturday_Classic_2022-04-02_8_GreenB
15. gzoppi 1:17 +20 35% OCIN_FP2022_Saturday_Classic_2022-04-02_9_GreenC
16. rhojnowski 1:18 +21 37% OCIN_FP2022_Saturday_Classic_2022-04-02_8_GreenB
17. Lost OH Rabbit 1:19 +22 39% OCIN_FP2022_Saturday_Classic_2022-04-02_8_GreenB
17. Sandbo 1:19 +22 39% OCIN_FP2022_Saturday_Classic_2022-04-02_9_GreenC
19. Josie Olson 1:22 +25 44% OCIN_FP2022_Saturday_Classic_2022-04-02_9_GreenC
20. Salinda 1:25 +28 49% OCIN_FP2022_Saturday_Classic_2022-04-02_9_GreenC
21. Finley Miller 1:26 +29 51% OCIN_FP2022_Saturday_Classic_2022-04-02_9_GreenC
22. Sevastian Irimie 1:27 +30 53% OCIN_FP2022_Saturday_Classic_2022-04-02_8_GreenB
22. Alex Bowles 1:27 +30 53% OCIN_FP2022_Saturday_Classic_2022-04-02_9_GreenC
24. Roman Colley 1:28 +31 54% OCIN_FP2022_Saturday_Classic_2022-04-02_9_GreenC
25. tmartineau 1:32 +35 61% OCIN_FP2022_Saturday_Classic_2022-04-02_8_GreenB
25. annikamihata 1:32 +35 61% OCIN_FP2022_Saturday_Classic_2022-04-02_9_GreenC
27. Conner Malone 1:33 +36 63% OCIN_FP2022_Saturday_Classic_2022-04-02_9_GreenC
28. Bethany Jablon 1:38 +41 72% OCIN_FP2022_Saturday_Classic_2022-04-02_9_GreenC
28. Emil G 1:38 +41 72% OCIN_FP2022_Saturday_Classic_2022-04-02_8_GreenB
28. Antonio Barranco Gonzalez 1:38 +41 72% OCIN_FP2022_Saturday_Classic_2022-04-02_8_GreenB
31. Brett Barrows 1:40 +43 75% OCIN_FP2022_Saturday_Classic_2022-04-02_9_GreenC
32. saros 1:44 +47 82% OCIN_FP2022_Saturday_Classic_2022-04-02_8_GreenB
33. Brenden Doogan 1:46 +49 86% OCIN_FP2022_Saturday_Classic_2022-04-02_9_GreenC
34. Cooper Green 1:50 +53 93% OCIN_FP2022_Saturday_Classic_2022-04-02_8_GreenB
35. jcolleran 1:53 +56 98% OCIN_FP2022_Saturday_Classic_2022-04-02_9_GreenC
36. Kean Williams 1:55 +58 102% OCIN_FP2022_Saturday_Classic_2022-04-02_8_GreenB
36. Gearhead 1:55 +58 102% OCIN_FP2022_Saturday_Classic_2022-04-02_8_GreenB
38. Norman P Flout 1:59 +1:02 109% OCIN_FP2022_Saturday_Classic_2022-04-02_8_GreenB
38. Grace Suhocki 1:59 +1:02 109% OCIN_FP2022_Saturday_Classic_2022-04-02_9_GreenC
40. FredM 2:06 +1:09 121% OCIN_FP2022_Saturday_Classic_2022-04-02_8_GreenB
41. Mason Lotempio 2:20 +1:23 146% OCIN_FP2022_Saturday_Classic_2022-04-02_9_GreenC
42. Ben Brady 2:21 +1:24 147% OCIN_FP2022_Saturday_Classic_2022-04-02_9_GreenC
43. C. J. Meidlinger 2:39 +1:42 179% OCIN_FP2022_Saturday_Classic_2022-04-02_8_GreenB
44. Rick Breseman 2:43 +1:46 186% OCIN_FP2022_Saturday_Classic_2022-04-02_8_GreenB
45. zsibthorp 2:44 +1:47 188% OCIN_FP2022_Saturday_Classic_2022-04-02_9_GreenC
46. Joshua Hamilton 3:17 +2:20 246% OCIN_FP2022_Saturday_Classic_2022-04-02_9_GreenC
47. Connor Martin 6:54 +5:57 626% OCIN_FP2022_Saturday_Classic_2022-04-02_9_GreenC
48. Lukas Lange 7:08 +6:11 651% OCIN_FP2022_Saturday_Classic_2022-04-02_9_GreenC